KBGM/BGM METAR and TAF weather

Enter ICAO airport designator
Station Type Date Time Source
KBGM METAR 2020/04/05 13:53 UTC NOAA

KBGM 051353Z 25005KT 10SM BKN044 OVC060 09/06 A3001 RMK AO2 RAB19E44 SLP167 P0001 T00890056


Station Type Date Time Source
KBGM Decoded METAR 2020/04/05 13:53 UTC NOAA

BINGHAMTON REGIONAL AIRPORT, NY, United States (KBGM) 42-12N 75-59W 492M
Apr 05, 2020 - 09:53 AM EDT / 2020.04.05 1353 UTC
Wind: from the WSW (250 degrees) at 6 MPH (5 KT):0
Visibility: 10 mile(s):0
Sky conditions: overcast
Precipitation last hour: 0.01 inches
Temperature: 48.0 F (8.9 C)
Dew Point: 42.1 F (5.6 C)
Relative Humidity: 79%
Pressure (altimeter): 30.01 in. Hg (1016 hPa)
ob: KBGM 051353Z 25005KT 10SM BKN044 OVC060 09/06 A3001 RMK AO2 RAB19E44 SLP167 P0001 T00890056
cycle: 14

Station Type Date Time Source
KBGM TAF 2020/04/05 12:24 UTC NOAA

TAF KBGM 051121Z 0512/0612 VRB03KT P6SM SCT030 OVC050
FM051500 28006KT P6SM BKN040
TEMPO 0517/0521 6SM -SHRA BR BKN022
FM052200 32007KT P6SM BKN040
FM060300 33005KT P6SM FEW035 SCT050 BKN060

Example: see airport list